Time;durP1;ratioP1;P1;durP2;ratioP2;P2;SDS_P1;SDS_P2;PMS_P1;PMS_P2;Temp;Humidity;BMP_temperature;BMP_pressure;BME280_temperature;BME280_humidity;BME280_pressure;Samples;Min_cycle;Max_cycle;Signal;HPM_P1;HPM_P2
2023/10/28 00:00:48;;;;;;;5.40;2.70;;;9.80;99.90;;;;;;5038050;28;20071;-55
2023/10/28 00:03:15;;;;;;;7.67;2.30;;;9.80;99.90;;;;;;5038087;28;20025;-54
2023/10/28 00:05:41;;;;;;;8.20;3.03;;;9.70;99.90;;;;;;5037915;28;20382;-55
2023/10/28 00:08:07;;;;;;;7.57;2.33;;;9.80;99.90;;;;;;5038004;28;20044;-56
2023/10/28 00:10:35;;;;;;;9.17;2.40;;;9.80;99.90;;;;;;5038040;28;20429;-52
2023/10/28 00:13:01;;;;;;;10.00;2.90;;;9.90;99.90;;;;;;5037795;28;20112;-56
2023/10/28 00:15:27;;;;;;;9.50;2.57;;;9.80;99.90;;;;;;5036815;28;20114;-52
2023/10/28 00:17:53;;;;;;;5.10;2.30;;;9.80;99.90;;;;;;5037937;28;20029;-56
2023/10/28 00:20:21;;;;;;;7.87;2.60;;;9.80;99.90;;;;;;5037612;28;20112;-52
2023/10/28 00:22:49;;;;;;;7.80;2.10;;;9.90;99.90;;;;;;5038052;28;20034;-54
2023/10/28 00:25:16;;;;;;;6.20;2.43;;;10.00;99.90;;;;;;5037359;28;20037;-50
2023/10/28 00:27:43;;;;;;;13.50;3.23;;;10.10;99.90;;;;;;5037608;28;20021;-54
2023/10/28 00:30:10;;;;;;;9.20;2.40;;;10.00;99.90;;;;;;5019582;28;20029;-54
2023/10/28 00:32:39;;;;;;;7.60;2.53;;;9.90;99.90;;;;;;5020357;28;20038;-54
2023/10/28 00:35:07;;;;;;;6.13;2.47;;;9.90;99.90;;;;;;5019905;28;20033;-52
2023/10/28 00:37:33;;;;;;;5.83;2.30;;;9.80;99.90;;;;;;5037233;28;20044;-54
2023/10/28 00:40:00;;;;;;;9.10;2.40;;;9.90;99.90;;;;;;5019293;28;20037;-54
2023/10/28 00:42:26;;;;;;;6.73;2.30;;;9.80;99.90;;;;;;5037383;28;20425;-54
2023/10/28 00:44:54;;;;;;;4.20;2.27;;;9.90;99.90;;;;;;5002927;28;20025;-55
2023/10/28 00:47:22;;;;;;;4.80;2.23;;;9.90;99.90;;;;;;5037280;28;20029;-55
2023/10/28 00:49:50;;;;;;;4.67;2.23;;;10.00;99.90;;;;;;5019220;28;20033;-55
2023/10/28 00:52:17;;;;;;;7.30;2.27;;;10.00;99.90;;;;;;5019928;28;20087;-52
2023/10/28 00:54:43;;;;;;;6.20;2.23;;;9.90;99.90;;;;;;5019212;28;20498;-54
2023/10/28 00:57:09;;;;;;;4.33;2.20;;;9.90;99.90;;;;;;5036640;28;20046;-55
2023/10/28 00:59:34;;;;;;;5.60;2.50;;;9.90;99.90;;;;;;5036644;28;20030;-53
2023/10/28 01:02:00;;;;;;;7.60;2.37;;;9.90;99.90;;;;;;5019012;28;20026;-53
2023/10/28 01:04:28;;;;;;;7.27;2.40;;;9.90;99.90;;;;;;5018886;28;20025;-52
2023/10/28 01:06:54;;;;;;;8.17;2.20;;;10.00;99.90;;;;;;5018510;28;20075;-54
2023/10/28 01:09:21;;;;;;;6.27;2.20;;;10.00;99.90;;;;;;5018932;28;20088;-53
2023/10/28 01:11:48;;;;;;;8.50;2.27;;;10.00;99.90;;;;;;5036913;28;20390;-55
2023/10/28 01:14:14;;;;;;;7.37;2.83;;;10.00;99.90;;;;;;5036739;28;20069;-53
2023/10/28 01:16:40;;;;;;;7.03;2.40;;;10.00;99.90;;;;;;5018715;28;20043;-55
2023/10/28 01:19:06;;;;;;;6.30;2.67;;;9.90;99.90;;;;;;5018544;28;20040;-54
2023/10/28 01:21:32;;;;;;;5.17;2.10;;;9.90;99.90;;;;;;5036638;28;20033;-54
2023/10/28 01:23:57;;;;;;;6.37;2.43;;;10.00;99.90;;;;;;5019365;28;20044;-55
2023/10/28 01:26:23;;;;;;;5.23;2.00;;;10.00;99.90;;;;;;5018068;28;20034;-55
2023/10/28 01:28:49;;;;;;;5.57;2.03;;;10.00;99.90;;;;;;5002210;28;20040;-55
2023/10/28 01:31:17;;;;;;;5.47;2.00;;;9.90;99.90;;;;;;5018335;28;20057;-53
2023/10/28 01:33:43;;;;;;;4.70;1.83;;;10.00;99.90;;;;;;5018770;28;20029;-54
2023/10/28 01:36:08;;;;;;;6.53;1.93;;;10.10;99.90;;;;;;5017862;28;20528;-54
2023/10/28 01:38:36;;;;;;;7.47;2.13;;;10.10;99.90;;;;;;5018208;28;20029;-53
2023/10/28 01:41:02;;;;;;;5.33;1.77;;;10.20;99.90;;;;;;5018212;28;20071;-53
2023/10/28 01:43:29;;;;;;;8.53;3.00;;;10.20;99.90;;;;;;5018538;28;20467;-53
2023/10/28 01:45:55;;;;;;;5.20;2.47;;;10.20;99.90;;;;;;5036279;28;20033;-55
2023/10/28 01:48:20;;;;;;;7.33;2.97;;;10.30;99.90;;;;;;5018461;28;20120;-54
2023/10/28 01:50:47;;;;;;;6.37;2.60;;;10.30;99.90;;;;;;5036016;28;20029;-52
2023/10/28 01:53:13;;;;;;;4.93;2.20;;;10.30;99.90;;;;;;5002330;28;20041;-53
2023/10/28 01:55:39;;;;;;;5.50;2.40;;;10.40;99.90;;;;;;5018310;28;20033;-54
2023/10/28 01:58:06;;;;;;;6.40;2.07;;;10.40;99.90;;;;;;5017504;28;20029;-55
2023/10/28 02:00:32;;;;;;;6.20;2.00;;;10.40;99.90;;;;;;5017695;28;20204;-54
2023/10/28 02:03:00;;;;;;;10.13;2.43;;;10.40;99.90;;;;;;5035299;28;20060;-55
2023/10/28 02:05:26;;;;;;;9.10;2.57;;;10.40;99.90;;;;;;5035682;28;20041;-55
2023/10/28 02:07:51;;;;;;;3.83;1.77;;;10.40;99.90;;;;;;5001685;28;20029;-55
2023/10/28 02:10:17;;;;;;;7.63;1.97;;;10.50;99.90;;;;;;5017896;28;20044;-55
2023/10/28 02:12:43;;;;;;;6.33;2.40;;;10.40;99.90;;;;;;5018148;28;20034;-50
2023/10/28 02:15:10;;;;;;;4.50;2.40;;;10.40;99.90;;;;;;5018069;28;20029;-53
2023/10/28 02:17:36;;;;;;;6.40;2.40;;;10.40;99.90;;;;;;5035177;28;20505;-53
2023/10/28 02:20:03;;;;;;;8.60;2.40;;;10.50;99.90;;;;;;5017538;28;20095;-52
2023/10/28 02:22:33;;;;;;;6.57;2.20;;;10.50;99.90;;;;;;5000756;28;20116;-51
2023/10/28 02:24:59;;;;;;;5.53;2.10;;;10.50;99.90;;;;;;5018610;28;20390;-54
2023/10/28 02:27:25;;;;;;;11.03;2.23;;;10.50;99.90;;;;;;5018067;28;20025;-49
2023/10/28 02:29:50;;;;;;;7.57;2.07;;;10.50;99.90;;;;;;5018079;28;20470;-53
2023/10/28 02:32:16;;;;;;;9.80;2.33;;;10.40;99.90;;;;;;5018115;28;20064;-49
2023/10/28 02:34:42;;;;;;;6.97;2.23;;;10.50;99.90;;;;;;5035900;28;20033;-53
2023/10/28 02:37:07;;;;;;;7.90;2.30;;;10.50;99.90;;;;;;5018657;28;20037;-54
2023/10/28 02:39:33;;;;;;;7.27;2.73;;;10.40;99.90;;;;;;5021138;28;20033;-55
2023/10/28 02:42:00;;;;;;;6.00;2.23;;;10.50;99.90;;;;;;5039839;28;20040;-52
2023/10/28 02:44:26;;;;;;;5.20;2.30;;;10.40;99.90;;;;;;5022375;28;20029;-55
2023/10/28 02:46:55;;;;;;;7.53;2.60;;;10.40;99.90;;;;;;5040082;28;20040;-51
2023/10/28 02:49:21;;;;;;;3.92;2.55;;;10.40;99.90;;;;;;5022238;28;20037;-54
2023/10/28 02:51:47;;;;;;;4.43;1.90;;;10.30;99.90;;;;;;5039870;28;20071;-55
2023/10/28 02:54:14;;;;;;;8.60;2.50;;;10.30;99.90;;;;;;5021857;28;20056;-54
2023/10/28 02:56:40;;;;;;;8.70;2.60;;;10.30;99.90;;;;;;5021466;28;20033;-54
2023/10/28 02:59:06;;;;;;;4.63;2.50;;;10.30;99.90;;;;;;5021106;28;20033;-51
2023/10/28 03:01:36;;;;;;;5.17;1.83;;;10.30;99.90;;;;;;5039789;28;20289;-52
2023/10/28 03:04:03;;;;;;;4.63;1.90;;;10.30;99.90;;;;;;5021787;28;20112;-55
2023/10/28 03:06:29;;;;;;;4.73;2.00;;;10.30;99.90;;;;;;5039839;28;20036;-52
2023/10/28 03:08:54;;;;;;;5.13;1.90;;;10.30;99.90;;;;;;5021285;28;20482;-51
2023/10/28 03:11:20;;;;;;;2.80;1.90;;;10.30;99.90;;;;;;5021933;28;20041;-54
2023/10/28 03:13:46;;;;;;;7.83;1.90;;;10.30;99.90;;;;;;5039184;28;20041;-54
2023/10/28 03:16:12;;;;;;;7.90;1.83;;;10.30;99.90;;;;;;5022060;28;20068;-55
2023/10/28 03:18:37;;;;;;;5.67;1.80;;;10.20;99.90;;;;;;5021152;28;20037;-53
2023/10/28 03:21:04;;;;;;;3.67;1.70;;;10.20;99.90;;;;;;5039230;28;20394;-50
2023/10/28 03:23:30;;;;;;;4.53;1.73;;;10.20;99.90;;;;;;5021631;28;20124;-54
2023/10/28 03:25:56;;;;;;;3.80;1.67;;;10.20;99.90;;;;;;5038824;28;20029;-52
2023/10/28 03:28:22;;;;;;;6.00;1.83;;;10.20;99.90;;;;;;5038611;28;20505;-52
2023/10/28 03:30:48;;;;;;;4.20;1.83;;;10.10;99.90;;;;;;5021147;28;20033;-52
2023/10/28 03:33:13;;;;;;;2.87;1.37;;;10.20;99.90;;;;;;5039533;28;20553;-54
2023/10/28 03:35:39;;;;;;;7.93;1.70;;;10.20;99.90;;;;;;5038514;28;20053;-54
2023/10/28 03:38:05;;;;;;;5.40;1.57;;;10.20;99.90;;;;;;5021118;28;20034;-53
2023/10/28 03:40:31;;;;;;;3.30;1.50;;;10.20;99.90;;;;;;5020344;28;20038;-50
2023/10/28 03:42:56;;;;;;;6.90;1.90;;;10.20;99.90;;;;;;5039015;28;20264;-54
2023/10/28 03:45:22;;;;;;;5.80;1.63;;;10.20;99.90;;;;;;5038561;28;20029;-51
2023/10/28 03:47:48;;;;;;;5.27;1.50;;;10.10;99.90;;;;;;5038990;28;20037;-54
2023/10/28 03:50:14;;;;;;;6.40;1.50;;;10.20;99.90;;;;;;5038800;28;20025;-54
2023/10/28 03:52:40;;;;;;;3.37;1.47;;;10.20;99.90;;;;;;5020997;28;20052;-51
2023/10/28 03:55:06;;;;;;;5.87;1.17;;;10.20;99.90;;;;;;5038738;28;20033;-51
2023/10/28 03:57:31;;;;;;;2.97;1.40;;;10.20;99.90;;;;;;5039072;28;20482;-51
2023/10/28 03:59:58;;;;;;;2.80;1.30;;;10.30;99.90;;;;;;5038600;28;20309;-54
2023/10/28 04:02:24;;;;;;;3.13;1.53;;;10.30;99.90;;;;;;5039113;28;20033;-50
2023/10/28 04:04:49;;;;;;;5.17;1.60;;;10.30;99.90;;;;;;5038666;28;20075;-53
2023/10/28 04:07:15;;;;;;;3.90;1.50;;;10.30;99.90;;;;;;5038848;28;20482;-52
2023/10/28 04:09:41;;;;;;;3.27;1.03;;;10.30;99.90;;;;;;5038504;28;20037;-54
2023/10/28 04:12:07;;;;;;;5.13;1.23;;;10.30;99.90;;;;;;5038812;28;20034;-51
2023/10/28 04:14:36;;;;;;;4.87;1.50;;;10.30;99.90;;;;;;5038734;28;20447;-50
2023/10/28 04:17:03;;;;;;;3.13;1.58;;;10.30;99.90;;;;;;5038160;28;20038;-51
2023/10/28 04:19:29;;;;;;;3.07;1.80;;;10.30;99.90;;;;;;5038076;28;20084;-52
2023/10/28 04:21:55;;;;;;;2.40;1.20;;;10.30;99.90;;;;;;5038760;28;20032;-50
2023/10/28 04:24:22;;;;;;;4.03;1.47;;;10.30;99.90;;;;;;5038139;28;20036;-51
2023/10/28 04:26:47;;;;;;;6.13;1.50;;;10.30;99.90;;;;;;5038219;28;20043;-52
2023/10/28 04:29:13;;;;;;;2.57;1.00;;;10.30;99.90;;;;;;5038184;28;20116;-50
2023/10/28 04:31:39;;;;;;;5.93;1.30;;;10.30;99.90;;;;;;5038320;28;20025;-50
2023/10/28 04:34:05;;;;;;;4.80;1.40;;;10.20;99.90;;;;;;5038550;28;20385;-51
2023/10/28 04:36:31;;;;;;;4.60;1.20;;;10.10;99.90;;;;;;5038204;28;20033;-51
2023/10/28 04:38:57;;;;;;;3.67;1.63;;;10.10;99.90;;;;;;5038243;28;20032;-49
2023/10/28 04:41:22;;;;;;;3.33;1.50;;;10.20;99.90;;;;;;5037328;28;20036;-51
2023/10/28 04:43:48;;;;;;;5.63;1.40;;;10.20;99.90;;;;;;5037437;28;20029;-52
2023/10/28 04:46:14;;;;;;;4.13;1.60;;;10.20;99.90;;;;;;5037368;28;20029;-50
2023/10/28 04:48:42;;;;;;;5.07;1.20;;;10.20;99.90;;;;;;5036927;28;20030;-51
2023/10/28 04:51:08;;;;;;;5.27;1.93;;;10.20;99.90;;;;;;5036194;28;20482;-50
2023/10/28 04:53:34;;;;;;;8.53;1.90;;;10.10;99.90;;;;;;5034122;28;20037;-53
2023/10/28 04:56:00;;;;;;;12.57;5.20;;;10.20;99.90;;;;;;5035686;28;20080;-54
2023/10/28 04:58:27;;;;;;;6.70;2.87;;;10.10;99.90;;;;;;5036472;28;20044;-53
2023/10/28 05:00:53;;;;;;;3.53;1.80;;;10.20;99.90;;;;;;5036413;28;20505;-53
2023/10/28 05:03:19;;;;;;;5.53;1.53;;;10.20;99.90;;;;;;5018926;28;20034;-52
2023/10/28 05:05:46;;;;;;;5.20;1.43;;;10.20;99.90;;;;;;5036203;28;20033;-51
2023/10/28 05:08:13;;;;;;;4.77;1.40;;;10.20;99.90;;;;;;5037633;28;20026;-54
2023/10/28 05:10:39;;;;;;;6.80;1.50;;;10.20;99.90;;;;;;5018430;28;20048;-51
2023/10/28 05:13:05;;;;;;;5.60;1.23;;;10.20;99.90;;;;;;5037156;28;20029;-54
2023/10/28 05:15:30;;;;;;;3.03;1.23;;;10.20;99.90;;;;;;5018739;28;20061;-52
2023/10/28 05:17:56;;;;;;;3.67;1.70;;;10.20;99.90;;;;;;5036450;28;20034;-54
2023/10/28 05:20:21;;;;;;;2.73;1.33;;;10.20;99.90;;;;;;5036165;28;20060;-54
2023/10/28 05:22:47;;;;;;;4.47;1.30;;;10.10;99.90;;;;;;5018776;28;20030;-49
2023/10/28 05:25:13;;;;;;;3.17;1.20;;;10.10;99.90;;;;;;5018592;28;20029;-50
2023/10/28 05:27:39;;;;;;;2.63;1.10;;;10.10;99.90;;;;;;5036199;28;20025;-53
2023/10/28 05:30:06;;;;;;;5.00;1.67;;;10.00;99.90;;;;;;5036572;28;20036;-54
2023/10/28 05:32:31;;;;;;;4.10;1.60;;;10.10;99.90;;;;;;5036625;28;20029;-51
2023/10/28 05:34:58;;;;;;;2.90;1.20;;;10.10;99.90;;;;;;5036079;28;20029;-55
2023/10/28 05:37:24;;;;;;;6.40;1.80;;;10.10;99.90;;;;;;5036568;28;20402;-53
2023/10/28 05:39:50;;;;;;;4.53;1.30;;;10.00;99.90;;;;;;5036149;28;20033;-50
2023/10/28 05:42:16;;;;;;;1.90;1.10;;;10.00;99.90;;;;;;5037167;28;20109;-53
2023/10/28 05:44:43;;;;;;;2.70;1.30;;;10.00;99.90;;;;;;5036663;28;20029;-51
2023/10/28 05:47:10;;;;;;;3.27;1.33;;;10.00;99.90;;;;;;5035838;28;20108;-55
2023/10/28 05:49:36;;;;;;;3.73;1.03;;;9.90;99.90;;;;;;5035577;28;20034;-52
2023/10/28 05:52:01;;;;;;;3.53;1.37;;;9.90;99.90;;;;;;5036089;28;20501;-53
2023/10/28 05:54:27;;;;;;;4.03;0.97;;;9.90;99.90;;;;;;5036332;28;20029;-53
2023/10/28 05:56:54;;;;;;;2.73;1.20;;;9.90;99.90;;;;;;5036232;28;20029;-54
2023/10/28 05:59:20;;;;;;;4.07;1.20;;;9.90;99.90;;;;;;5017931;28;20445;-55
2023/10/28 06:01:45;;;;;;;7.73;1.60;;;10.00;99.90;;;;;;5035738;28;20029;-51
2023/10/28 06:04:11;;;;;;;4.43;1.20;;;10.00;99.90;;;;;;5019429;28;20018;-52
2023/10/28 06:06:37;;;;;;;3.07;1.30;;;10.00;99.90;;;;;;5035955;28;20048;-53
2023/10/28 06:09:03;;;;;;;1.70;1.00;;;10.10;99.90;;;;;;5036105;28;20401;-54
2023/10/28 06:11:29;;;;;;;2.53;1.00;;;10.10;99.90;;;;;;5036623;28;20029;-53
2023/10/28 06:13:55;;;;;;;2.70;1.20;;;10.10;99.90;;;;;;5040238;28;20036;-50
2023/10/28 06:16:20;;;;;;;3.57;1.20;;;10.10;99.90;;;;;;5022228;28;20029;-54
2023/10/28 06:18:47;;;;;;;2.23;0.90;;;10.10;99.90;;;;;;5022382;28;20044;-54
2023/10/28 06:21:15;;;;;;;3.37;1.27;;;10.10;99.90;;;;;;5039955;28;20026;-51
2023/10/28 06:23:42;;;;;;;5.47;1.30;;;10.10;99.90;;;;;;5039849;28;20025;-54
2023/10/28 06:26:07;;;;;;;2.87;1.33;;;10.10;99.90;;;;;;5039864;28;20064;-52
2023/10/28 06:28:34;;;;;;;2.67;1.10;;;10.10;99.90;;;;;;5039683;28;20018;-54
2023/10/28 06:31:00;;;;;;;3.57;1.30;;;10.20;99.90;;;;;;5021646;28;20037;-50
2023/10/28 06:33:26;;;;;;;6.67;2.10;;;10.20;99.90;;;;;;5039971;28;20041;-55
2023/10/28 06:35:52;;;;;;;5.40;1.53;;;10.30;99.90;;;;;;5021933;28;20037;-54
2023/10/28 06:38:18;;;;;;;3.80;1.33;;;10.30;99.90;;;;;;5039987;28;20041;-51
2023/10/28 06:40:46;;;;;;;3.97;1.50;;;10.30;99.90;;;;;;5039417;28;20061;-50
2023/10/28 06:43:14;;;;;;;3.60;1.60;;;10.30;99.90;;;;;;5039559;28;20029;-53
2023/10/28 06:45:40;;;;;;;3.33;1.30;;;10.30;99.90;;;;;;5040225;28;20031;-52
2023/10/28 06:48:06;;;;;;;4.50;1.93;;;10.40;99.90;;;;;;5039775;28;20077;-53
2023/10/28 06:50:32;;;;;;;5.20;1.97;;;10.40;99.90;;;;;;5039033;28;20060;-54
2023/10/28 06:52:59;;;;;;;4.27;1.50;;;10.50;99.90;;;;;;5039444;28;20486;-50
2023/10/28 06:55:27;;;;;;;3.87;1.77;;;10.50;99.90;;;;;;5038730;28;20029;-51
2023/10/28 06:57:52;;;;;;;2.53;1.30;;;10.50;99.90;;;;;;5038982;28;20037;-51
2023/10/28 07:00:21;;;;;;;4.23;1.43;;;10.50;99.90;;;;;;5038931;28;20490;-53
2023/10/28 07:02:46;;;;;;;4.17;1.50;;;10.50;99.90;;;;;;5039191;28;20385;-53
2023/10/28 07:05:14;;;;;;;5.00;1.43;;;10.60;99.90;;;;;;5037729;28;20025;-54
2023/10/28 07:07:40;;;;;;;2.53;1.10;;;10.60;99.90;;;;;;5037861;28;20049;-55
2023/10/28 07:10:06;;;;;;;3.97;1.60;;;10.60;99.90;;;;;;5037828;28;20048;-54
2023/10/28 07:12:33;;;;;;;4.47;1.60;;;10.60;99.90;;;;;;5037588;28;20057;-55
2023/10/28 07:14:59;;;;;;;2.60;1.30;;;10.70;99.90;;;;;;5037570;28;20033;-55
2023/10/28 07:17:26;;;;;;;2.30;1.17;;;10.70;99.90;;;;;;5037740;28;20049;-55
2023/10/28 07:19:52;;;;;;;3.33;1.50;;;10.70;99.90;;;;;;5037471;28;20054;-53
2023/10/28 07:22:22;;;;;;;3.03;1.30;;;10.70;99.90;;;;;;5037222;28;20095;-55
2023/10/28 07:24:48;;;;;;;6.07;3.10;;;10.80;99.90;;;;;;5037378;28;20034;-55
2023/10/28 07:27:14;;;;;;;8.10;3.37;;;10.80;99.90;;;;;;5037770;28;20067;-55
2023/10/28 07:29:40;;;;;;;13.87;7.30;;;10.80;99.90;;;;;;5036639;28;20071;-55
2023/10/28 07:32:06;;;;;;;8.00;3.83;;;10.90;99.90;;;;;;5037300;28;20065;-55
2023/10/28 07:34:32;;;;;;;5.50;2.47;;;10.90;99.90;;;;;;5019989;28;20101;-54
2023/10/28 07:37:03;;;;;;;2.33;1.00;;;11.00;99.90;;;;;;5037575;28;20056;-51
2023/10/28 07:39:29;;;;;;;3.07;1.30;;;10.90;99.90;;;;;;5020079;28;20041;-55
2023/10/28 07:41:56;;;;;;;1.57;1.10;;;10.90;99.90;;;;;;5037957;28;20057;-55
2023/10/28 07:44:21;;;;;;;1.60;0.80;;;10.90;99.90;;;;;;5020158;28;20093;-55
2023/10/28 07:46:47;;;;;;;1.90;0.90;;;10.90;99.90;;;;;;5037746;28;20057;-54
2023/10/28 07:49:13;;;;;;;2.10;0.80;;;11.00;99.90;;;;;;5037944;28;20043;-54
2023/10/28 07:51:39;;;;;;;1.00;0.80;;;11.00;99.90;;;;;;5037417;28;20059;-54
2023/10/28 07:54:06;;;;;;;2.37;0.70;;;11.10;99.90;;;;;;5038203;28;20065;-52
2023/10/28 07:56:32;;;;;;;2.57;0.90;;;11.10;99.90;;;;;;5037514;28;20033;-52
2023/10/28 07:59:01;;;;;;;2.07;0.90;;;11.10;99.90;;;;;;5036864;28;20486;-53
2023/10/28 08:01:27;;;;;;;;;;;11.10;99.90;;;;;;5037951;28;20033;-54
2023/10/28 08:03:53;;;;;;;3.47;1.47;;;11.10;99.90;;;;;;5037171;28;19909;-52
2023/10/28 08:06:19;;;;;;;5.13;1.10;;;11.20;99.90;;;;;;5037767;28;20033;-53
2023/10/28 08:08:46;;;;;;;5.87;1.47;;;11.20;99.90;;;;;;5037217;28;20118;-54
2023/10/28 08:11:24;;;;;;;1.83;0.83;;;11.20;99.90;;;;;;5037422;28;20082;-51
2023/10/28 08:13:50;;;;;;;3.87;1.20;;;11.30;99.90;;;;;;5037561;28;20025;-54
2023/10/28 08:16:20;;;;;;;4.37;1.20;;;11.30;99.90;;;;;;5037647;28;20029;-54
2023/10/28 08:18:49;;;;;;;1.23;0.70;;;11.30;99.90;;;;;;5036794;28;20033;-52
2023/10/28 08:21:16;;;;;;;3.97;1.08;;;11.30;99.90;;;;;;5037022;28;20041;-51
2023/10/28 08:23:43;;;;;;;4.03;1.30;;;11.30;99.90;;;;;;5037780;28;20033;-52
2023/10/28 08:26:10;;;;;;;2.73;1.23;;;11.30;99.90;;;;;;5019710;28;20033;-54
2023/10/28 08:28:36;;;;;;;3.53;1.10;;;11.30;99.90;;;;;;5037105;28;20029;-54
2023/10/28 08:31:02;;;;;;;4.17;1.27;;;11.40;99.90;;;;;;5037136;28;20036;-55
2023/10/28 08:33:28;;;;;;;3.80;1.20;;;11.40;99.90;;;;;;5037369;28;20045;-54
2023/10/28 08:35:56;;;;;;;3.20;1.40;;;11.40;99.90;;;;;;5018488;28;20037;-54
2023/10/28 08:38:22;;;;;;;1.70;0.50;;;11.40;99.90;;;;;;5036738;28;20026;-53
2023/10/28 08:40:48;;;;;;;3.20;1.07;;;11.40;99.90;;;;;;5036511;28;20495;-53
2023/10/28 08:43:14;;;;;;;1.87;0.80;;;11.30;99.90;;;;;;5036931;28;20474;-53
2023/10/28 08:45:45;;;;;;;3.03;1.20;;;11.30;99.90;;;;;;5036742;28;20040;-54
2023/10/28 08:48:18;;;;;;;3.60;1.33;;;11.30;99.90;;;;;;5036403;28;20029;-54
2023/10/28 08:50:51;;;;;;;3.07;1.30;;;11.30;99.90;;;;;;5036522;28;20079;-53
2023/10/28 08:53:18;;;;;;;3.20;0.73;;;11.30;99.90;;;;;;5036442;28;20033;-52
2023/10/28 08:55:45;;;;;;;1.70;0.83;;;11.40;99.90;;;;;;5036779;28;20025;-52
2023/10/28 08:58:12;;;;;;;2.40;1.10;;;11.40;99.90;;;;;;5036555;28;20041;-53
2023/10/28 09:00:38;;;;;;;2.43;0.90;;;11.50;99.90;;;;;;5036223;28;20037;-53
2023/10/28 09:03:05;;;;;;;2.07;0.97;;;11.60;99.90;;;;;;5036463;28;20040;-53
2023/10/28 09:05:31;;;;;;;1.20;0.80;;;11.60;99.90;;;;;;5036737;28;20120;-53
2023/10/28 09:07:56;;;;;;;3.15;0.70;;;11.60;99.90;;;;;;5036453;28;20057;-53
2023/10/28 09:10:23;;;;;;;1.80;0.87;;;11.60;99.90;;;;;;5036427;28;20037;-54
2023/10/28 09:12:52;;;;;;;2.05;0.80;;;11.60;99.90;;;;;;5019147;28;20045;-53
2023/10/28 09:15:18;;;;;;;1.60;0.45;;;11.60;99.90;;;;;;5036340;28;20099;-54
2023/10/28 09:17:44;;;;;;;2.30;1.10;;;11.70;99.90;;;;;;5036409;28;20037;-51
2023/10/28 09:20:10;;;;;;;2.15;0.77;;;11.70;99.90;;;;;;5018133;28;20036;-54
2023/10/28 09:22:42;;;;;;;1.90;0.80;;;11.70;99.90;;;;;;5018319;28;20036;-53
2023/10/28 09:25:11;;;;;;;3.92;1.17;;;11.70;99.90;;;;;;5035566;28;20033;-53
2023/10/28 09:27:40;;;;;;;3.13;0.80;;;11.70;99.90;;;;;;5018787;28;20033;-54
2023/10/28 09:30:07;;;;;;;;;;;11.70;99.90;;;;;;5036200;28;20033;-54
2023/10/28 09:32:34;;;;;;;1.17;0.60;;;11.70;99.90;;;;;;5036184;28;20263;-54
2023/10/28 09:35:07;;;;;;;1.13;0.77;;;11.70;99.90;;;;;;5035883;28;20121;-53
2023/10/28 09:37:35;;;;;;;3.27;0.83;;;11.70;99.90;;;;;;5036264;28;20037;-53
2023/10/28 09:40:05;;;;;;;2.03;0.80;;;11.70;99.90;;;;;;5035816;28;20025;-54
2023/10/28 09:42:36;;;;;;;2.90;0.87;;;11.70;99.90;;;;;;5036035;28;20036;-53
2023/10/28 09:45:09;;;;;;;5.68;1.08;;;11.80;99.90;;;;;;5036071;28;20112;-54
2023/10/28 09:47:49;;;;;;;1.40;0.70;;;11.80;99.90;;;;;;5017835;28;20030;-53
2023/10/28 09:50:15;;;;;;;2.10;0.93;;;11.80;99.90;;;;;;5036051;28;20037;-51
2023/10/28 09:52:45;;;;;;;2.28;0.88;;;11.80;99.90;;;;;;5036129;28;20033;-53
2023/10/28 09:55:15;;;;;;;2.10;0.80;;;11.80;99.90;;;;;;5035101;28;20056;-52
2023/10/28 09:57:44;;;;;;;4.32;0.90;;;11.80;99.90;;;;;;5035687;28;20095;-54
2023/10/28 10:00:17;;;;;;;1.60;0.90;;;11.90;99.90;;;;;;5035086;28;20041;-53
2023/10/28 10:03:03;;;;;;;1.08;0.60;;;12.00;99.90;;;;;;5036025;28;20464;-52
2023/10/28 10:05:41;;;;;;;2.83;0.65;;;12.00;99.90;;;;;;5035073;28;20037;-51
2023/10/28 10:08:23;;;;;;;21.23;10.15;;;12.10;99.90;;;;;;5036103;28;20025;-55
2023/10/28 10:10:52;;;;;;;4.13;1.48;;;12.20;99.90;;;;;;5035778;28;20482;-54
2023/10/28 10:13:17;;;;;;;2.43;1.00;;;12.20;99.90;;;;;;5035937;28;20467;-51
2023/10/28 10:15:52;;;;;;;2.30;0.85;;;12.20;99.90;;;;;;5035260;28;20041;-53
2023/10/28 10:18:44;;;;;;;1.52;0.80;;;12.30;99.90;;;;;;5018029;28;20034;-54
2023/10/28 10:21:18;;;;;;;4.38;0.80;;;12.40;99.90;;;;;;5034566;28;20058;-53
2023/10/28 10:23:50;;;;;;;1.23;0.50;;;12.70;99.90;;;;;;5036005;28;20038;-54
2023/10/28 10:26:27;;;;;;;1.10;0.60;;;12.80;99.90;;;;;;5035813;28;20089;-52
2023/10/28 10:28:55;;;;;;;2.60;0.70;;;13.00;99.90;;;;;;5035015;28;20403;-54
2023/10/28 10:31:27;;;;;;;2.58;0.68;;;13.10;99.90;;;;;;5035230;28;20556;-55
2023/10/28 10:34:09;;;;;;;1.63;0.60;;;13.10;99.90;;;;;;5035510;28;20026;-52
2023/10/28 10:36:40;;;;;;;2.15;0.80;;;13.20;99.90;;;;;;5035239;28;20029;-55
2023/10/28 10:39:14;;;;;;;3.13;0.70;;;13.20;99.90;;;;;;5035325;28;20029;-54
2023/10/28 10:41:41;;;;;;;0.93;0.50;;;13.20;99.90;;;;;;5017393;28;20060;-55
2023/10/28 10:44:31;;;;;;;5.35;1.02;;;13.30;99.90;;;;;;5035385;28;20030;-53
2023/10/28 10:46:58;;;;;;;2.83;0.70;;;13.40;99.90;;;;;;5034655;28;20088;-49
2023/10/28 10:49:24;;;;;;;2.97;0.57;;;13.50;99.90;;;;;;5017371;28;20545;-54
2023/10/28 10:51:50;;;;;;;1.63;0.82;;;13.50;99.90;;;;;;5017587;28;20041;-51
2023/10/28 10:54:19;;;;;;;3.53;0.98;;;13.50;99.90;;;;;;5034575;28;20037;-54
2023/10/28 10:56:45;;;;;;;2.08;0.93;;;13.60;99.90;;;;;;5035136;28;20037;-54
2023/10/28 10:59:11;;;;;;;3.47;0.80;;;13.60;99.90;;;;;;5017832;28;20034;-53
2023/10/28 11:01:40;;;;;;;1.63;0.50;;;13.80;99.90;;;;;;5038736;28;20459;-52
2023/10/28 11:04:09;;;;;;;1.40;0.90;;;13.90;99.90;;;;;;5038515;28;20033;-53
2023/10/28 11:06:35;;;;;;;1.17;0.60;;;14.10;99.90;;;;;;5038952;28;20225;-54
2023/10/28 11:09:03;;;;;;;2.85;0.90;;;14.30;99.90;;;;;;5038168;28;20047;-54
2023/10/28 11:11:29;;;;;;;4.15;1.73;;;14.50;99.90;;;;;;5038226;28;20044;-52
2023/10/28 11:13:56;;;;;;;8.05;3.13;;;14.50;99.90;;;;;;5038573;28;20029;-54
2023/10/28 11:16:26;;;;;;;2.88;1.13;;;14.40;99.90;;;;;;5038062;28;20033;-49
2023/10/28 11:18:52;;;;;;;1.23;0.63;;;14.30;99.90;;;;;;5020522;28;20022;-53
2023/10/28 11:21:25;;;;;;;3.65;0.80;;;14.10;99.90;;;;;;5037563;28;20464;-53
2023/10/28 11:23:54;;;;;;;1.52;0.63;;;14.00;99.90;;;;;;5038056;28;20053;-54
2023/10/28 11:26:20;;;;;;;2.40;0.95;;;14.00;99.90;;;;;;5037861;28;20052;-54
2023/10/28 11:28:46;;;;;;;1.77;0.70;;;14.10;99.90;;;;;;5037507;28;20109;-54
2023/10/28 11:31:12;;;;;;;3.33;1.05;;;14.20;99.90;;;;;;5038053;28;20033;-54
2023/10/28 11:33:38;;;;;;;2.17;0.57;;;14.10;99.90;;;;;;5020092;28;20035;-53
2023/10/28 11:36:04;;;;;;;2.80;0.73;;;14.40;99.90;;;;;;5038347;28;20040;-54
2023/10/28 11:38:34;;;;;;;2.60;0.73;;;14.80;99.90;;;;;;5037784;28;20390;-55
2023/10/28 11:41:07;;;;;;;2.47;0.90;;;15.20;99.90;;;;;;5038654;28;20029;-54
2023/10/28 11:43:36;;;;;;;3.03;1.10;;;15.10;99.90;;;;;;5020448;28;20124;-53
2023/10/28 11:46:03;;;;;;;3.17;0.80;;;15.10;99.90;;;;;;5037712;28;20038;-52
2023/10/28 11:48:29;;;;;;;3.25;1.25;;;14.90;99.90;;;;;;5037549;28;20038;-52
2023/10/28 11:50:55;;;;;;;3.75;0.85;;;14.90;99.90;;;;;;5037504;28;20061;-53
2023/10/28 11:53:25;;;;;;;2.65;0.70;;;14.80;99.90;;;;;;5037361;28;20029;-53
2023/10/28 11:55:51;;;;;;;4.75;0.98;;;14.80;99.90;;;;;;5037213;28;20447;-51
2023/10/28 11:58:17;;;;;;;17.05;5.93;;;14.80;99.90;;;;;;5037363;28;20056;-52
2023/10/28 12:00:50;;;;;;;7.75;2.75;;;14.90;99.90;;;;;;5019787;28;20033;-54
2023/10/28 12:03:17;;;;;;;10.30;4.35;;;15.00;99.90;;;;;;5037565;28;20026;-52
2023/10/28 12:05:43;;;;;;;6.00;1.92;;;15.20;99.90;;;;;;5037565;28;20514;-54
2023/10/28 12:08:11;;;;;;;10.18;1.33;;;15.40;99.90;;;;;;5036932;28;20056;-54
2023/10/28 12:10:43;;;;;;;5.47;1.10;;;15.70;99.90;;;;;;5036602;28;20608;-54
2023/10/28 12:13:10;;;;;;;5.53;0.95;;;16.20;99.90;;;;;;5037476;28;20037;-53
2023/10/28 12:15:36;;;;;;;4.95;1.02;;;17.00;99.90;;;;;;5037063;28;20113;-54
2023/10/28 12:18:01;;;;;;;6.53;0.98;;;17.80;99.90;;;;;;5036194;28;20057;-55
2023/10/28 12:20:27;;;;;;;7.20;0.98;;;17.90;99.90;;;;;;5036974;28;20033;-50
2023/10/28 12:22:53;;;;;;;6.72;1.35;;;17.40;99.90;;;;;;5036812;28;20033;-54
2023/10/28 12:25:18;;;;;;;5.32;1.35;;;16.80;99.90;;;;;;5036386;28;20029;-51
2023/10/28 12:27:44;;;;;;;5.50;1.10;;;16.50;99.90;;;;;;5037048;28;20132;-53
2023/10/28 12:30:10;;;;;;;6.10;1.08;;;16.20;99.90;;;;;;5037140;28;20034;-52
2023/10/28 12:32:36;;;;;;;5.30;0.98;;;16.00;99.90;;;;;;5036503;28;20386;-54
2023/10/28 12:35:02;;;;;;;6.10;1.02;;;16.10;99.90;;;;;;5036449;28;20021;-51
2023/10/28 12:37:28;;;;;;;6.53;1.10;;;16.50;99.90;;;;;;5036995;28;20074;-54
2023/10/28 12:39:53;;;;;;;5.63;1.30;;;16.50;99.90;;;;;;5036352;28;20033;-51
2023/10/28 12:42:19;;;;;;;4.05;1.10;;;16.20;99.90;;;;;;5036617;28;20025;-52
2023/10/28 12:44:44;;;;;;;5.72;1.23;;;16.00;99.90;;;;;;5036003;28;20067;-56
2023/10/28 12:47:10;;;;;;;5.63;1.00;;;15.70;99.90;;;;;;5036140;28;20029;-52